Rose, Nebraska
Current Conditions -  °F | °C
As of 4:15 AM on Thursday 23 Oct 2014 (Local Time) from KANW Reporting Station
Clear Clear  
Wind Chill: 38°   Ceiling: Unl
Heat Index: 41°   Visibility: 10mi
Dew Point: 40°   Wind: 5mph
Humidity: 96%   Direction: 230°SW
Pressure: 30.04"   Gusts: NA
Location:  42.15°N, 99.47°W
Report Text: KANW 230915Z AUTO 23004KT 10SM CLR 05/04 A3004 RMK AO2 T00500044
Loading
Personal Weather Stations






























Interactive Weather Map
Tropical Storm Tracking
New forecast layout! Learn more

10-Day Weather Forecast

Advertisements
Track Severe Weather on mobile